createdAt,value
2018-07-25T00:03:01.270Z,20.4
2018-07-25T00:13:01.309Z,20.3
2018-07-25T00:18:01.246Z,20.2
2018-07-25T00:28:01.386Z,20.1
2018-07-25T00:43:01.413Z,20.0
2018-07-25T00:48:01.262Z,19.9
2018-07-25T00:58:01.317Z,19.8
2018-07-25T01:08:01.398Z,19.7
2018-07-25T01:18:01.376Z,19.6
2018-07-25T01:33:01.372Z,19.5
2018-07-25T01:48:01.359Z,19.4
2018-07-25T01:58:01.500Z,19.3
2018-07-25T02:09:01.274Z,19.2
2018-07-25T02:19:01.186Z,19.1
2018-07-25T02:29:01.222Z,19.0
2018-07-25T02:39:01.250Z,18.9
2018-07-25T02:49:01.255Z,18.8
2018-07-25T02:59:01.325Z,18.7
2018-07-25T03:09:01.405Z,18.6
2018-07-25T03:14:01.179Z,18.5
2018-07-25T03:29:01.221Z,18.4
2018-07-25T03:44:01.244Z,18.4
2018-07-25T03:59:01.254Z,18.4
2018-07-25T04:04:01.263Z,18.5
2018-07-25T04:19:01.239Z,18.6
2018-07-25T04:24:01.225Z,18.7
2018-07-25T04:29:01.250Z,18.8
2018-07-25T04:34:01.214Z,18.9
2018-07-25T04:39:01.218Z,19.1
2018-07-25T04:44:01.217Z,19.2
2018-07-25T04:49:01.222Z,19.3
2018-07-25T04:54:01.263Z,19.4
2018-07-25T04:59:01.280Z,19.6
2018-07-25T05:04:01.274Z,19.8
2018-07-25T05:09:01.232Z,20.0
2018-07-25T05:15:01.460Z,20.1
2018-07-25T05:20:01.228Z,20.4
2018-07-25T05:25:01.259Z,20.6
2018-07-25T05:30:01.362Z,20.9
2018-07-25T05:35:01.230Z,21.1
2018-07-25T05:40:01.261Z,21.5
2018-07-25T05:45:01.232Z,21.7
2018-07-25T05:50:01.263Z,22.0
2018-07-25T05:55:01.210Z,22.2
2018-07-25T06:00:01.341Z,22.5
2018-07-25T06:05:01.242Z,22.7
2018-07-25T06:10:01.393Z,23.1
2018-07-25T06:15:01.374Z,23.4
2018-07-25T06:20:01.333Z,23.7
2018-07-25T06:25:01.278Z,24.0
2018-07-25T06:30:01.472Z,24.4
2018-07-25T06:35:01.238Z,24.7
2018-07-25T06:40:01.360Z,25.0
2018-07-25T06:45:01.483Z,25.1
2018-07-25T06:50:01.365Z,25.3
2018-07-25T06:55:01.307Z,25.5
2018-07-25T07:00:01.505Z,25.7
2018-07-25T07:05:01.339Z,25.9
2018-07-25T07:10:01.332Z,26.1
2018-07-25T07:15:01.359Z,26.3
2018-07-25T07:20:01.452Z,26.6
2018-07-25T07:25:01.531Z,26.8
2018-07-25T07:30:01.761Z,27.1
2018-07-25T07:35:01.514Z,27.3
2018-07-25T07:40:01.427Z,27.6
2018-07-25T07:45:01.420Z,27.7
2018-07-25T07:50:01.397Z,28.0
2018-07-25T07:55:01.314Z,28.1
2018-07-25T08:00:01.550Z,28.4
2018-07-25T08:05:01.300Z,28.6
2018-07-25T08:10:01.324Z,28.8
2018-07-25T08:15:01.444Z,28.9
2018-07-25T08:20:01.527Z,29.1
2018-07-25T08:25:01.435Z,29.2
2018-07-25T08:30:01.499Z,29.4
2018-07-25T08:35:01.299Z,29.5
2018-07-25T08:40:01.350Z,29.7
2018-07-25T08:45:01.439Z,29.7
2018-07-25T08:50:01.365Z,29.9
2018-07-25T08:55:01.302Z,30.0
2018-07-25T09:00:01.489Z,30.2
2018-07-25T09:05:01.278Z,30.3
2018-07-25T09:10:01.423Z,30.5
2018-07-25T09:15:01.426Z,30.6
2018-07-25T09:20:01.413Z,30.8
2018-07-25T09:25:01.221Z,30.9
2018-07-25T09:30:01.495Z,31.0
2018-07-25T09:35:01.286Z,31.1
2018-07-25T09:40:01.358Z,31.3
2018-07-25T09:45:01.426Z,31.4
2018-07-25T09:50:01.320Z,31.5
2018-07-25T09:55:01.259Z,31.6
2018-07-25T10:00:01.596Z,31.8
2018-07-25T10:15:01.586Z,31.8
2018-07-25T10:30:01.664Z,31.8
2018-07-25T10:35:01.267Z,31.9
2018-07-25T10:40:01.473Z,32.0
2018-07-25T10:45:01.470Z,32.1
2018-07-25T10:50:01.465Z,32.3
2018-07-25T10:55:01.220Z,32.4
2018-07-25T11:00:01.557Z,32.4
2018-07-25T11:15:01.521Z,32.4
2018-07-25T11:20:01.316Z,32.3
2018-07-25T11:30:01.499Z,32.3
2018-07-25T11:40:01.375Z,32.4
2018-07-25T11:45:01.392Z,32.6
2018-07-25T11:50:01.423Z,32.9
2018-07-25T11:55:01.257Z,33.0
2018-07-25T12:00:01.431Z,33.1
2018-07-25T12:05:01.322Z,33.2
2018-07-25T12:10:01.383Z,33.3
2018-07-25T12:15:01.380Z,33.3
2018-07-25T12:20:01.448Z,33.5
2018-07-25T12:25:01.273Z,33.6
2018-07-25T12:30:01.440Z,33.6
2018-07-25T12:36:01.322Z,33.7
2018-07-25T12:46:06.126Z,33.6
2018-07-25T12:51:01.518Z,33.4
2018-07-25T12:56:01.514Z,33.2
2018-07-25T13:01:01.259Z,32.8
2018-07-25T13:06:01.268Z,32.4
2018-07-25T13:11:01.332Z,32.0
2018-07-25T13:16:01.344Z,31.7
2018-07-25T13:21:01.388Z,31.4
2018-07-25T13:26:01.270Z,31.3
2018-07-25T13:31:01.226Z,31.1
2018-07-25T13:46:01.152Z,31.2
2018-07-25T13:51:01.328Z,31.5
2018-07-25T13:56:01.459Z,31.7
2018-07-25T14:01:01.261Z,32.1
2018-07-25T14:06:01.269Z,32.3
2018-07-25T14:11:01.465Z,32.6
2018-07-25T14:16:01.264Z,32.7
2018-07-25T14:31:01.333Z,32.4
2018-07-25T14:36:01.340Z,32.1
2018-07-25T14:41:01.544Z,31.6
2018-07-25T14:46:01.293Z,31.1
2018-07-25T14:51:01.401Z,30.6
2018-07-25T14:56:01.773Z,30.4
2018-07-25T15:01:06.330Z,30.1
2018-07-25T15:11:01.933Z,29.9
2018-07-25T15:16:01.327Z,29.8
2018-07-25T15:21:01.331Z,28.9
2018-07-25T15:26:01.356Z,28.0
2018-07-25T15:31:01.339Z,26.7
2018-07-25T15:36:01.262Z,25.5
2018-07-25T15:41:01.051Z,24.2
2018-07-25T15:46:01.956Z,23.9
2018-07-25T15:51:01.394Z,23.5
2018-07-25T16:06:01.455Z,23.5
2018-07-25T16:11:01.687Z,23.6
2018-07-25T16:26:01.389Z,23.5
2018-07-25T16:31:01.812Z,23.6
2018-07-25T16:41:01.404Z,23.7
2018-07-25T16:46:02.006Z,23.9
2018-07-25T16:51:01.468Z,24.0
2018-07-25T16:56:01.445Z,24.1
2018-07-25T17:01:01.256Z,24.2
2018-07-25T17:06:01.242Z,24.3
2018-07-25T17:11:01.574Z,24.4
2018-07-25T17:16:01.254Z,24.6
2018-07-25T17:21:01.392Z,24.7
2018-07-25T17:26:01.260Z,24.9
2018-07-25T17:31:01.255Z,25.0
2018-07-25T17:36:01.479Z,25.2
2018-07-25T17:41:01.469Z,25.3
2018-07-25T17:46:01.290Z,25.4
2018-07-25T17:56:01.311Z,25.5
2018-07-25T18:11:01.216Z,25.5
2018-07-25T18:26:01.321Z,25.5
2018-07-25T18:31:01.249Z,25.6
2018-07-25T18:36:01.299Z,25.5
2018-07-25T18:46:01.299Z,25.4
2018-07-25T18:51:01.245Z,25.3
2018-07-25T18:56:01.293Z,25.1
2018-07-25T19:01:01.264Z,25.0
2018-07-25T19:11:01.224Z,24.9
2018-07-25T19:16:01.269Z,24.8
2018-07-25T19:26:01.235Z,24.7
2018-07-25T19:31:01.199Z,24.5
2018-07-25T19:36:01.241Z,24.4
2018-07-25T19:41:01.230Z,24.3
2018-07-25T19:46:01.411Z,24.1
2018-07-25T19:51:01.253Z,24.0
2018-07-25T19:56:01.228Z,23.9
2018-07-25T20:01:06.265Z,23.7
2018-07-25T20:06:01.327Z,23.6
2018-07-25T20:11:01.256Z,23.5
2018-07-25T20:16:01.296Z,23.4
2018-07-25T20:21:06.300Z,23.3
2018-07-25T20:26:06.289Z,23.2
2018-07-25T20:31:06.278Z,23.1
2018-07-25T20:36:06.315Z,23.0
2018-07-25T20:46:01.385Z,22.9
2018-07-25T20:51:01.497Z,22.8
2018-07-25T21:01:01.485Z,22.7
2018-07-25T21:06:01.774Z,22.6
2018-07-25T21:11:01.328Z,22.5
2018-07-25T21:16:01.334Z,22.4
2018-07-25T21:21:01.452Z,22.3
2018-07-25T21:31:01.400Z,22.2
2018-07-25T21:46:01.344Z,22.2
2018-07-25T21:51:01.436Z,22.1
2018-07-25T21:56:01.246Z,22.0
2018-07-25T22:01:01.417Z,21.9
2018-07-25T22:06:01.249Z,21.8
2018-07-25T22:11:01.380Z,21.6
2018-07-25T22:16:01.254Z,21.5
2018-07-25T22:21:01.331Z,21.4
2018-07-25T22:26:01.260Z,21.3
2018-07-25T22:31:01.326Z,21.2
2018-07-25T22:37:01.209Z,21.1
2018-07-25T22:42:01.383Z,21.0
2018-07-25T22:52:01.442Z,20.9
2018-07-25T22:57:01.259Z,20.8
2018-07-25T23:02:01.323Z,20.7
2018-07-25T23:12:01.396Z,20.6
2018-07-25T23:17:01.258Z,20.5
2018-07-25T23:22:01.325Z,20.4
2018-07-25T23:37:01.407Z,20.3
2018-07-25T23:52:01.360Z,20.2
